sensor_id;sensor_type;location;lat;lon;timestamp;temperature;humidity
62339;DHT22;48368;53.406;6.214;2023-06-26T00:00:20;21.70;99.90
62339;DHT22;48368;53.406;6.214;2023-06-26T00:02:46;21.70;99.90
62339;DHT22;48368;53.406;6.214;2023-06-26T00:05:12;21.80;99.90
62339;DHT22;48368;53.406;6.214;2023-06-26T00:07:38;21.70;99.90
62339;DHT22;48368;53.406;6.214;2023-06-26T00:10:05;21.70;99.90
62339;DHT22;48368;53.406;6.214;2023-06-26T00:12:31;21.80;99.90
62339;DHT22;48368;53.406;6.214;2023-06-26T00:14:57;21.70;99.90
62339;DHT22;48368;53.406;6.214;2023-06-26T00:17:23;21.70;99.90
62339;DHT22;48368;53.406;6.214;2023-06-26T00:19:49;21.70;99.90
62339;DHT22;48368;53.406;6.214;2023-06-26T00:22:15;21.70;99.90
62339;DHT22;48368;53.406;6.214;2023-06-26T00:24:40;21.70;99.90
62339;DHT22;48368;53.406;6.214;2023-06-26T00:27:06;21.60;99.90
62339;DHT22;48368;53.406;6.214;2023-06-26T00:29:32;21.60;99.90
62339;DHT22;48368;53.406;6.214;2023-06-26T00:31:57;21.60;99.90
62339;DHT22;48368;53.406;6.214;2023-06-26T00:34:23;21.60;99.90
62339;DHT22;48368;53.406;6.214;2023-06-26T00:36:48;21.60;99.90
62339;DHT22;48368;53.406;6.214;2023-06-26T00:39:15;21.60;99.90
62339;DHT22;48368;53.406;6.214;2023-06-26T00:41:41;21.50;99.90
62339;DHT22;48368;53.406;6.214;2023-06-26T00:44:07;21.50;99.90
62339;DHT22;48368;53.406;6.214;2023-06-26T00:46:33;21.50;99.90
62339;DHT22;48368;53.406;6.214;2023-06-26T00:49:01;21.50;99.90
62339;DHT22;48368;53.406;6.214;2023-06-26T00:51:30;21.40;99.90
62339;DHT22;48368;53.406;6.214;2023-06-26T00:53:57;21.40;99.90
62339;DHT22;48368;53.406;6.214;2023-06-26T00:56:23;21.40;99.90
62339;DHT22;48368;53.406;6.214;2023-06-26T00:58:49;21.40;99.90
62339;DHT22;48368;53.406;6.214;2023-06-26T01:01:14;21.40;99.90
62339;DHT22;48368;53.406;6.214;2023-06-26T01:03:48;21.40;99.90
62339;DHT22;48368;53.406;6.214;2023-06-26T01:06:20;21.30;99.90
62339;DHT22;48368;53.406;6.214;2023-06-26T01:08:47;21.30;99.90
62339;DHT22;48368;53.406;6.214;2023-06-26T01:11:14;21.30;99.90
62339;DHT22;48368;53.406;6.214;2023-06-26T01:13:42;21.30;99.90
62339;DHT22;48368;53.406;6.214;2023-06-26T01:16:09;21.30;99.90
62339;DHT22;48368;53.406;6.214;2023-06-26T01:18:35;21.20;99.90
62339;DHT22;48368;53.406;6.214;2023-06-26T01:21:03;21.20;99.90
62339;DHT22;48368;53.406;6.214;2023-06-26T01:23:52;21.20;99.90
62339;DHT22;48368;53.406;6.214;2023-06-26T01:26:23;21.20;99.90
62339;DHT22;48368;53.406;6.214;2023-06-26T01:28:51;21.20;99.90
62339;DHT22;48368;53.406;6.214;2023-06-26T01:31:19;21.20;99.90
62339;DHT22;48368;53.406;6.214;2023-06-26T01:33:45;21.20;99.90
62339;DHT22;48368;53.406;6.214;2023-06-26T01:36:12;21.20;99.90
62339;DHT22;48368;53.406;6.214;2023-06-26T01:38:37;21.10;99.90
62339;DHT22;48368;53.406;6.214;2023-06-26T01:41:06;21.20;99.90
62339;DHT22;48368;53.406;6.214;2023-06-26T01:46:38;21.10;99.90
62339;DHT22;48368;53.406;6.214;2023-06-26T01:49:38;21.10;99.90
62339;DHT22;48368;53.406;6.214;2023-06-26T01:55:15;21.10;99.90
62339;DHT22;48368;53.406;6.214;2023-06-26T01:57:42;21.10;99.90
62339;DHT22;48368;53.406;6.214;2023-06-26T02:00:10;21.10;99.90
62339;DHT22;48368;53.406;6.214;2023-06-26T02:02:36;21.10;99.90
62339;DHT22;48368;53.406;6.214;2023-06-26T02:05:02;21.10;99.90
62339;DHT22;48368;53.406;6.214;2023-06-26T02:07:28;21.10;99.90
62339;DHT22;48368;53.406;6.214;2023-06-26T02:09:54;21.20;99.90
62339;DHT22;48368;53.406;6.214;2023-06-26T02:12:20;21.20;99.90
62339;DHT22;48368;53.406;6.214;2023-06-26T02:14:46;21.20;99.90
62339;DHT22;48368;53.406;6.214;2023-06-26T02:17:11;21.20;99.90
62339;DHT22;48368;53.406;6.214;2023-06-26T02:19:37;21.30;99.90
62339;DHT22;48368;53.406;6.214;2023-06-26T02:22:10;21.30;99.90
62339;DHT22;48368;53.406;6.214;2023-06-26T02:24:36;21.20;99.90
62339;DHT22;48368;53.406;6.214;2023-06-26T02:27:01;21.20;99.90
62339;DHT22;48368;53.406;6.214;2023-06-26T02:29:27;21.20;99.90
62339;DHT22;48368;53.406;6.214;2023-06-26T02:31:53;21.20;99.90
62339;DHT22;48368;53.406;6.214;2023-06-26T02:34:19;21.20;99.90
62339;DHT22;48368;53.406;6.214;2023-06-26T02:36:44;21.10;99.90
62339;DHT22;48368;53.406;6.214;2023-06-26T02:39:10;21.10;99.90
62339;DHT22;48368;53.406;6.214;2023-06-26T02:41:36;21.10;99.90
62339;DHT22;48368;53.406;6.214;2023-06-26T02:44:01;21.10;99.90
62339;DHT22;48368;53.406;6.214;2023-06-26T02:46:27;21.00;99.90
62339;DHT22;48368;53.406;6.214;2023-06-26T02:48:53;21.00;99.90
62339;DHT22;48368;53.406;6.214;2023-06-26T02:51:18;21.00;99.90
62339;DHT22;48368;53.406;6.214;2023-06-26T02:53:44;21.00;99.90
62339;DHT22;48368;53.406;6.214;2023-06-26T02:56:10;21.00;99.90
62339;DHT22;48368;53.406;6.214;2023-06-26T02:58:35;21.10;99.90
62339;DHT22;48368;53.406;6.214;2023-06-26T03:01:01;21.10;99.90
62339;DHT22;48368;53.406;6.214;2023-06-26T03:03:27;21.00;99.90
62339;DHT22;48368;53.406;6.214;2023-06-26T03:05:52;21.10;99.90
62339;DHT22;48368;53.406;6.214;2023-06-26T03:08:18;21.10;99.90
62339;DHT22;48368;53.406;6.214;2023-06-26T03:10:44;21.00;99.90
62339;DHT22;48368;53.406;6.214;2023-06-26T03:13:10;21.00;99.90
62339;DHT22;48368;53.406;6.214;2023-06-26T03:15:42;21.00;99.90
62339;DHT22;48368;53.406;6.214;2023-06-26T03:18:07;20.90;99.90
62339;DHT22;48368;53.406;6.214;2023-06-26T03:20:35;20.90;99.90
62339;DHT22;48368;53.406;6.214;2023-06-26T03:23:00;20.90;99.90
62339;DHT22;48368;53.406;6.214;2023-06-26T03:25:26;20.90;99.90
62339;DHT22;48368;53.406;6.214;2023-06-26T03:27:51;20.90;99.90
62339;DHT22;48368;53.406;6.214;2023-06-26T03:30:17;20.90;99.90
62339;DHT22;48368;53.406;6.214;2023-06-26T03:32:42;20.90;99.90
62339;DHT22;48368;53.406;6.214;2023-06-26T03:35:08;20.90;99.90
62339;DHT22;48368;53.406;6.214;2023-06-26T03:37:34;20.90;99.90
62339;DHT22;48368;53.406;6.214;2023-06-26T03:40:00;20.90;99.90
62339;DHT22;48368;53.406;6.214;2023-06-26T03:42:26;20.90;99.90
62339;DHT22;48368;53.406;6.214;2023-06-26T03:44:51;21.00;99.90
62339;DHT22;48368;53.406;6.214;2023-06-26T03:47:17;20.90;99.90
62339;DHT22;48368;53.406;6.214;2023-06-26T03:49:42;20.90;99.90
62339;DHT22;48368;53.406;6.214;2023-06-26T03:52:08;20.90;99.90
62339;DHT22;48368;53.406;6.214;2023-06-26T03:54:34;20.90;99.90
62339;DHT22;48368;53.406;6.214;2023-06-26T03:56:59;20.90;99.90
62339;DHT22;48368;53.406;6.214;2023-06-26T03:59:25;20.90;99.90
62339;DHT22;48368;53.406;6.214;2023-06-26T04:01:51;20.90;99.90
62339;DHT22;48368;53.406;6.214;2023-06-26T04:04:16;20.90;99.90
62339;DHT22;48368;53.406;6.214;2023-06-26T04:06:42;20.90;99.90
62339;DHT22;48368;53.406;6.214;2023-06-26T04:09:07;20.90;99.90
62339;DHT22;48368;53.406;6.214;2023-06-26T04:11:33;20.90;99.90
62339;DHT22;48368;53.406;6.214;2023-06-26T04:13:59;20.90;99.90
62339;DHT22;48368;53.406;6.214;2023-06-26T04:16:25;20.90;99.90
62339;DHT22;48368;53.406;6.214;2023-06-26T04:18:52;20.90;99.90
62339;DHT22;48368;53.406;6.214;2023-06-26T04:21:17;20.90;99.90
62339;DHT22;48368;53.406;6.214;2023-06-26T04:23:43;20.80;99.90
62339;DHT22;48368;53.406;6.214;2023-06-26T04:26:09;20.80;99.90
62339;DHT22;48368;53.406;6.214;2023-06-26T04:28:35;20.60;99.90
62339;DHT22;48368;53.406;6.214;2023-06-26T04:31:02;20.50;99.90
62339;DHT22;48368;53.406;6.214;2023-06-26T04:33:31;20.50;99.90
62339;DHT22;48368;53.406;6.214;2023-06-26T04:35:57;20.30;99.90
62339;DHT22;48368;53.406;6.214;2023-06-26T04:38:23;20.20;99.90
62339;DHT22;48368;53.406;6.214;2023-06-26T04:40:49;20.20;99.90
62339;DHT22;48368;53.406;6.214;2023-06-26T04:43:15;20.10;99.90
62339;DHT22;48368;53.406;6.214;2023-06-26T04:45:40;19.90;99.90
62339;DHT22;48368;53.406;6.214;2023-06-26T04:48:06;19.90;99.90
62339;DHT22;48368;53.406;6.214;2023-06-26T04:50:32;19.80;99.90
62339;DHT22;48368;53.406;6.214;2023-06-26T04:52:59;19.60;99.90
62339;DHT22;48368;53.406;6.214;2023-06-26T04:55:25;19.50;99.90
62339;DHT22;48368;53.406;6.214;2023-06-26T04:57:51;19.50;99.90
62339;DHT22;48368;53.406;6.214;2023-06-26T05:00:17;19.50;99.90
62339;DHT22;48368;53.406;6.214;2023-06-26T05:02:43;19.40;99.90
62339;DHT22;48368;53.406;6.214;2023-06-26T05:05:09;19.30;99.90
62339;DHT22;48368;53.406;6.214;2023-06-26T05:07:36;19.30;99.90
62339;DHT22;48368;53.406;6.214;2023-06-26T05:10:01;19.30;99.90
62339;DHT22;48368;53.406;6.214;2023-06-26T05:12:27;19.30;99.90
62339;DHT22;48368;53.406;6.214;2023-06-26T05:14:54;19.30;99.90
62339;DHT22;48368;53.406;6.214;2023-06-26T05:17:19;19.30;99.90
62339;DHT22;48368;53.406;6.214;2023-06-26T05:19:45;19.30;99.90
62339;DHT22;48368;53.406;6.214;2023-06-26T05:22:12;19.30;99.90
62339;DHT22;48368;53.406;6.214;2023-06-26T05:24:39;19.20;99.90
62339;DHT22;48368;53.406;6.214;2023-06-26T05:27:05;19.10;99.90
62339;DHT22;48368;53.406;6.214;2023-06-26T05:29:32;19.20;99.90
62339;DHT22;48368;53.406;6.214;2023-06-26T05:31:59;19.20;99.90
62339;DHT22;48368;53.406;6.214;2023-06-26T05:34:25;19.10;99.90
62339;DHT22;48368;53.406;6.214;2023-06-26T05:36:57;19.00;99.90
62339;DHT22;48368;53.406;6.214;2023-06-26T05:39:23;19.00;99.90
62339;DHT22;48368;53.406;6.214;2023-06-26T05:41:50;18.90;99.90
62339;DHT22;48368;53.406;6.214;2023-06-26T05:44:15;19.00;99.90
62339;DHT22;48368;53.406;6.214;2023-06-26T05:46:41;19.00;99.90
62339;DHT22;48368;53.406;6.214;2023-06-26T05:49:07;19.10;99.90
62339;DHT22;48368;53.406;6.214;2023-06-26T05:51:33;19.20;99.90
62339;DHT22;48368;53.406;6.214;2023-06-26T05:53:59;19.30;99.90
62339;DHT22;48368;53.406;6.214;2023-06-26T05:56:24;19.40;99.90
62339;DHT22;48368;53.406;6.214;2023-06-26T05:58:51;19.50;99.90
62339;DHT22;48368;53.406;6.214;2023-06-26T06:01:17;19.50;99.90
62339;DHT22;48368;53.406;6.214;2023-06-26T06:03:44;19.60;99.90
62339;DHT22;48368;53.406;6.214;2023-06-26T06:06:10;19.60;99.90
62339;DHT22;48368;53.406;6.214;2023-06-26T06:08:37;19.80;99.90
62339;DHT22;48368;53.406;6.214;2023-06-26T06:11:03;19.90;99.90
62339;DHT22;48368;53.406;6.214;2023-06-26T06:13:29;19.90;99.90
62339;DHT22;48368;53.406;6.214;2023-06-26T06:15:54;19.80;99.90
62339;DHT22;48368;53.406;6.214;2023-06-26T06:18:21;19.90;99.90
62339;DHT22;48368;53.406;6.214;2023-06-26T06:20:47;20.00;99.90
62339;DHT22;48368;53.406;6.214;2023-06-26T06:23:13;20.00;99.90
62339;DHT22;48368;53.406;6.214;2023-06-26T06:25:39;20.20;99.90
62339;DHT22;48368;53.406;6.214;2023-06-26T06:28:05;20.20;99.90
62339;DHT22;48368;53.406;6.214;2023-06-26T06:30:31;20.40;99.90
62339;DHT22;48368;53.406;6.214;2023-06-26T06:32:57;20.50;99.90
62339;DHT22;48368;53.406;6.214;2023-06-26T06:35:23;20.50;99.90
62339;DHT22;48368;53.406;6.214;2023-06-26T06:37:49;20.50;99.90
62339;DHT22;48368;53.406;6.214;2023-06-26T06:40:15;20.50;99.90
62339;DHT22;48368;53.406;6.214;2023-06-26T06:42:40;20.50;99.90
62339;DHT22;48368;53.406;6.214;2023-06-26T06:45:06;20.40;99.90
62339;DHT22;48368;53.406;6.214;2023-06-26T06:47:33;20.40;99.90
62339;DHT22;48368;53.406;6.214;2023-06-26T06:50:00;20.50;99.90
62339;DHT22;48368;53.406;6.214;2023-06-26T06:52:42;20.50;99.90
62339;DHT22;48368;53.406;6.214;2023-06-26T06:55:08;20.50;99.90
62339;DHT22;48368;53.406;6.214;2023-06-26T06:57:37;20.60;99.90
62339;DHT22;48368;53.406;6.214;2023-06-26T07:00:11;20.60;99.90
62339;DHT22;48368;53.406;6.214;2023-06-26T07:02:38;20.60;99.90
62339;DHT22;48368;53.406;6.214;2023-06-26T07:05:05;20.60;99.90
62339;DHT22;48368;53.406;6.214;2023-06-26T07:07:32;20.70;99.90
62339;DHT22;48368;53.406;6.214;2023-06-26T07:09:59;20.90;99.90
62339;DHT22;48368;53.406;6.214;2023-06-26T07:12:25;21.00;99.90
62339;DHT22;48368;53.406;6.214;2023-06-26T07:14:51;20.90;99.90
62339;DHT22;48368;53.406;6.214;2023-06-26T07:17:17;21.00;99.90
62339;DHT22;48368;53.406;6.214;2023-06-26T07:19:42;21.20;99.90
62339;DHT22;48368;53.406;6.214;2023-06-26T07:22:08;21.10;99.90
62339;DHT22;48368;53.406;6.214;2023-06-26T07:24:33;21.10;99.90
62339;DHT22;48368;53.406;6.214;2023-06-26T07:26:59;21.10;99.90
62339;DHT22;48368;53.406;6.214;2023-06-26T07:29:26;21.10;99.90
62339;DHT22;48368;53.406;6.214;2023-06-26T07:31:51;21.20;99.90
62339;DHT22;48368;53.406;6.214;2023-06-26T07:34:17;21.30;99.90
62339;DHT22;48368;53.406;6.214;2023-06-26T07:36:43;21.40;99.90
62339;DHT22;48368;53.406;6.214;2023-06-26T07:39:08;21.40;99.90
62339;DHT22;48368;53.406;6.214;2023-06-26T07:41:37;21.30;99.90
62339;DHT22;48368;53.406;6.214;2023-06-26T07:44:02;21.30;99.90
62339;DHT22;48368;53.406;6.214;2023-06-26T07:46:28;21.30;99.90
62339;DHT22;48368;53.406;6.214;2023-06-26T07:48:54;21.40;99.90
62339;DHT22;48368;53.406;6.214;2023-06-26T07:51:20;21.30;99.90
62339;DHT22;48368;53.406;6.214;2023-06-26T07:53:46;21.40;99.90
62339;DHT22;48368;53.406;6.214;2023-06-26T07:56:11;21.30;99.90
62339;DHT22;48368;53.406;6.214;2023-06-26T07:58:37;21.20;99.90
62339;DHT22;48368;53.406;6.214;2023-06-26T08:01:03;21.20;99.90
62339;DHT22;48368;53.406;6.214;2023-06-26T08:03:28;21.20;99.90
62339;DHT22;48368;53.406;6.214;2023-06-26T08:05:54;21.30;99.90
62339;DHT22;48368;53.406;6.214;2023-06-26T08:08:20;21.30;99.90
62339;DHT22;48368;53.406;6.214;2023-06-26T08:10:46;21.30;99.90
62339;DHT22;48368;53.406;6.214;2023-06-26T08:13:11;21.30;99.90
62339;DHT22;48368;53.406;6.214;2023-06-26T08:15:37;21.30;99.90
62339;DHT22;48368;53.406;6.214;2023-06-26T08:18:03;21.40;99.90
62339;DHT22;48368;53.406;6.214;2023-06-26T08:20:28;21.30;99.90
62339;DHT22;48368;53.406;6.214;2023-06-26T08:22:55;21.20;99.90
62339;DHT22;48368;53.406;6.214;2023-06-26T08:25:21;21.20;99.90
62339;DHT22;48368;53.406;6.214;2023-06-26T08:27:46;21.10;99.90
62339;DHT22;48368;53.406;6.214;2023-06-26T08:30:12;21.30;99.90
62339;DHT22;48368;53.406;6.214;2023-06-26T08:32:39;21.20;99.90
62339;DHT22;48368;53.406;6.214;2023-06-26T08:35:06;21.30;99.90
62339;DHT22;48368;53.406;6.214;2023-06-26T08:37:31;21.20;99.90
62339;DHT22;48368;53.406;6.214;2023-06-26T08:39:59;21.30;99.90
62339;DHT22;48368;53.406;6.214;2023-06-26T08:42:25;21.50;99.90
62339;DHT22;48368;53.406;6.214;2023-06-26T08:44:51;21.70;99.90
62339;DHT22;48368;53.406;6.214;2023-06-26T08:47:16;21.70;99.90
62339;DHT22;48368;53.406;6.214;2023-06-26T08:49:51;21.70;99.90
62339;DHT22;48368;53.406;6.214;2023-06-26T08:52:22;21.60;99.90
62339;DHT22;48368;53.406;6.214;2023-06-26T08:54:54;21.30;99.90
62339;DHT22;48368;53.406;6.214;2023-06-26T08:57:21;21.30;99.90
62339;DHT22;48368;53.406;6.214;2023-06-26T08:59:48;21.40;99.90
62339;DHT22;48368;53.406;6.214;2023-06-26T09:02:14;21.40;99.90
62339;DHT22;48368;53.406;6.214;2023-06-26T09:04:40;21.30;99.90
62339;DHT22;48368;53.406;6.214;2023-06-26T09:07:06;21.10;99.90
62339;DHT22;48368;53.406;6.214;2023-06-26T09:09:32;21.10;99.90
62339;DHT22;48368;53.406;6.214;2023-06-26T09:11:58;21.20;99.90
62339;DHT22;48368;53.406;6.214;2023-06-26T09:14:23;21.00;99.90
62339;DHT22;48368;53.406;6.214;2023-06-26T09:16:49;20.90;99.90
62339;DHT22;48368;53.406;6.214;2023-06-26T09:19:15;20.90;99.90
62339;DHT22;48368;53.406;6.214;2023-06-26T09:21:42;21.00;99.90
62339;DHT22;48368;53.406;6.214;2023-06-26T09:24:09;21.20;99.90
62339;DHT22;48368;53.406;6.214;2023-06-26T09:26:39;21.40;99.90
62339;DHT22;48368;53.406;6.214;2023-06-26T09:29:06;21.60;99.90
62339;DHT22;48368;53.406;6.214;2023-06-26T09:31:33;21.70;99.90
62339;DHT22;48368;53.406;6.214;2023-06-26T09:34:00;21.80;99.90
62339;DHT22;48368;53.406;6.214;2023-06-26T09:36:28;21.80;99.90
62339;DHT22;48368;53.406;6.214;2023-06-26T09:38:54;22.00;99.90
62339;DHT22;48368;53.406;6.214;2023-06-26T09:41:20;22.20;99.90
62339;DHT22;48368;53.406;6.214;2023-06-26T09:43:48;22.30;99.90
62339;DHT22;48368;53.406;6.214;2023-06-26T09:46:28;22.30;99.90
62339;DHT22;48368;53.406;6.214;2023-06-26T09:49:08;22.40;99.90
62339;DHT22;48368;53.406;6.214;2023-06-26T09:51:36;22.30;99.90
62339;DHT22;48368;53.406;6.214;2023-06-26T09:54:03;22.40;99.90
62339;DHT22;48368;53.406;6.214;2023-06-26T09:56:31;22.50;99.90
62339;DHT22;48368;53.406;6.214;2023-06-26T09:59:02;22.30;99.90
62339;DHT22;48368;53.406;6.214;2023-06-26T10:01:29;22.20;99.90
62339;DHT22;48368;53.406;6.214;2023-06-26T10:03:55;22.30;99.90
62339;DHT22;48368;53.406;6.214;2023-06-26T10:06:38;22.60;99.90
62339;DHT22;48368;53.406;6.214;2023-06-26T10:09:04;22.40;99.90
62339;DHT22;48368;53.406;6.214;2023-06-26T10:14:11;22.80;99.90
62339;DHT22;48368;53.406;6.214;2023-06-26T10:16:39;22.70;99.90
62339;DHT22;48368;53.406;6.214;2023-06-26T10:19:08;22.90;99.90
62339;DHT22;48368;53.406;6.214;2023-06-26T10:21:37;23.00;99.90
62339;DHT22;48368;53.406;6.214;2023-06-26T10:24:05;22.90;99.90
62339;DHT22;48368;53.406;6.214;2023-06-26T10:26:36;22.70;99.90
62339;DHT22;48368;53.406;6.214;2023-06-26T10:29:04;22.50;99.90
62339;DHT22;48368;53.406;6.214;2023-06-26T10:31:32;22.20;99.90
62339;DHT22;48368;53.406;6.214;2023-06-26T10:33:58;22.30;99.90
62339;DHT22;48368;53.406;6.214;2023-06-26T10:36:29;22.30;99.90
62339;DHT22;48368;53.406;6.214;2023-06-26T10:38:57;22.50;99.90
62339;DHT22;48368;53.406;6.214;2023-06-26T10:41:24;22.60;99.90
62339;DHT22;48368;53.406;6.214;2023-06-26T10:46:25;22.50;99.90
62339;DHT22;48368;53.406;6.214;2023-06-26T10:48:58;22.40;99.90
62339;DHT22;48368;53.406;6.214;2023-06-26T10:51:26;22.50;99.90
62339;DHT22;48368;53.406;6.214;2023-06-26T10:53:57;22.50;99.90
62339;DHT22;48368;53.406;6.214;2023-06-26T10:56:46;22.70;99.90
62339;DHT22;48368;53.406;6.214;2023-06-26T10:59:20;22.80;99.90
62339;DHT22;48368;53.406;6.214;2023-06-26T11:01:57;22.80;99.90
62339;DHT22;48368;53.406;6.214;2023-06-26T11:04:45;22.70;99.90
62339;DHT22;48368;53.406;6.214;2023-06-26T11:07:23;22.60;99.90
62339;DHT22;48368;53.406;6.214;2023-06-26T11:10:01;22.50;99.90
62339;DHT22;48368;53.406;6.214;2023-06-26T11:12:37;22.70;99.90
62339;DHT22;48368;53.406;6.214;2023-06-26T11:15:14;22.70;99.90
62339;DHT22;48368;53.406;6.214;2023-06-26T11:17:41;22.50;99.90
62339;DHT22;48368;53.406;6.214;2023-06-26T11:20:09;22.40;99.90
62339;DHT22;48368;53.406;6.214;2023-06-26T11:22:37;22.50;99.90
62339;DHT22;48368;53.406;6.214;2023-06-26T11:25:04;22.20;99.90
62339;DHT22;48368;53.406;6.214;2023-06-26T11:27:32;22.40;99.90
62339;DHT22;48368;53.406;6.214;2023-06-26T11:29:58;22.50;99.90
62339;DHT22;48368;53.406;6.214;2023-06-26T11:32:26;22.50;99.90
62339;DHT22;48368;53.406;6.214;2023-06-26T11:34:52;22.60;99.90
62339;DHT22;48368;53.406;6.214;2023-06-26T11:37:19;22.80;99.90
62339;DHT22;48368;53.406;6.214;2023-06-26T11:39:44;22.70;99.90
62339;DHT22;48368;53.406;6.214;2023-06-26T11:42:11;22.70;99.90
62339;DHT22;48368;53.406;6.214;2023-06-26T11:44:41;22.50;99.90
62339;DHT22;48368;53.406;6.214;2023-06-26T11:47:07;22.60;99.90
62339;DHT22;48368;53.406;6.214;2023-06-26T11:49:33;22.70;99.90
62339;DHT22;48368;53.406;6.214;2023-06-26T11:51:58;22.80;99.90
62339;DHT22;48368;53.406;6.214;2023-06-26T11:54:27;22.90;99.90
62339;DHT22;48368;53.406;6.214;2023-06-26T11:56:57;22.90;99.90
62339;DHT22;48368;53.406;6.214;2023-06-26T11:59:24;22.80;99.90
62339;DHT22;48368;53.406;6.214;2023-06-26T12:01:51;22.80;99.90
62339;DHT22;48368;53.406;6.214;2023-06-26T12:04:18;22.80;99.90
62339;DHT22;48368;53.406;6.214;2023-06-26T12:06:50;22.90;99.90
62339;DHT22;48368;53.406;6.214;2023-06-26T12:09:18;22.90;99.90
62339;DHT22;48368;53.406;6.214;2023-06-26T12:11:47;22.90;99.90
62339;DHT22;48368;53.406;6.214;2023-06-26T12:14:14;22.60;99.90
62339;DHT22;48368;53.406;6.214;2023-06-26T12:16:40;22.40;99.90
62339;DHT22;48368;53.406;6.214;2023-06-26T12:19:07;22.00;99.90
62339;DHT22;48368;53.406;6.214;2023-06-26T12:24:00;22.10;99.90
62339;DHT22;48368;53.406;6.214;2023-06-26T12:26:26;22.40;99.90
62339;DHT22;48368;53.406;6.214;2023-06-26T12:28:52;22.40;99.90
62339;DHT22;48368;53.406;6.214;2023-06-26T12:31:20;22.50;99.90
62339;DHT22;48368;53.406;6.214;2023-06-26T12:33:47;22.40;99.90
62339;DHT22;48368;53.406;6.214;2023-06-26T12:36:13;22.40;99.90
62339;DHT22;48368;53.406;6.214;2023-06-26T12:38:40;22.30;99.90
62339;DHT22;48368;53.406;6.214;2023-06-26T12:41:12;22.30;99.90
62339;DHT22;48368;53.406;6.214;2023-06-26T12:43:40;22.10;99.90
62339;DHT22;48368;53.406;6.214;2023-06-26T12:46:06;22.10;99.90
62339;DHT22;48368;53.406;6.214;2023-06-26T12:48:43;22.00;99.90
62339;DHT22;48368;53.406;6.214;2023-06-26T12:51:12;21.70;99.90
62339;DHT22;48368;53.406;6.214;2023-06-26T12:53:38;21.60;99.90
62339;DHT22;48368;53.406;6.214;2023-06-26T12:56:08;21.60;99.90
62339;DHT22;48368;53.406;6.214;2023-06-26T12:58:37;21.50;99.90
62339;DHT22;48368;53.406;6.214;2023-06-26T13:01:04;21.10;99.90
62339;DHT22;48368;53.406;6.214;2023-06-26T13:03:31;21.20;99.90
62339;DHT22;48368;53.406;6.214;2023-06-26T13:05:56;21.30;99.90
62339;DHT22;48368;53.406;6.214;2023-06-26T13:08:22;20.90;99.90
62339;DHT22;48368;53.406;6.214;2023-06-26T13:10:49;21.00;99.90
62339;DHT22;48368;53.406;6.214;2023-06-26T13:13:16;21.10;99.90
62339;DHT22;48368;53.406;6.214;2023-06-26T13:15:42;21.00;99.90
62339;DHT22;48368;53.406;6.214;2023-06-26T13:18:07;21.20;99.90
62339;DHT22;48368;53.406;6.214;2023-06-26T13:20:33;21.20;99.90
62339;DHT22;48368;53.406;6.214;2023-06-26T13:22:58;21.40;99.90
62339;DHT22;48368;53.406;6.214;2023-06-26T13:25:24;21.30;99.90
62339;DHT22;48368;53.406;6.214;2023-06-26T13:27:50;21.10;99.90
62339;DHT22;48368;53.406;6.214;2023-06-26T13:30:15;20.80;99.90
62339;DHT22;48368;53.406;6.214;2023-06-26T13:32:43;20.50;99.90
62339;DHT22;48368;53.406;6.214;2023-06-26T13:35:09;20.60;99.90
62339;DHT22;48368;53.406;6.214;2023-06-26T13:37:35;20.50;99.90
62339;DHT22;48368;53.406;6.214;2023-06-26T13:40:02;20.60;99.90
62339;DHT22;48368;53.406;6.214;2023-06-26T13:42:29;20.60;99.90
62339;DHT22;48368;53.406;6.214;2023-06-26T13:44:55;20.90;99.90
62339;DHT22;48368;53.406;6.214;2023-06-26T13:47:20;20.70;99.90
62339;DHT22;48368;53.406;6.214;2023-06-26T13:49:46;20.50;99.90
62339;DHT22;48368;53.406;6.214;2023-06-26T13:52:12;20.40;99.90
62339;DHT22;48368;53.406;6.214;2023-06-26T13:54:38;20.50;99.90
62339;DHT22;48368;53.406;6.214;2023-06-26T13:57:06;20.60;99.90
62339;DHT22;48368;53.406;6.214;2023-06-26T13:59:32;20.60;99.90
62339;DHT22;48368;53.406;6.214;2023-06-26T14:01:58;20.80;99.90
62339;DHT22;48368;53.406;6.214;2023-06-26T14:04:25;21.00;99.90
62339;DHT22;48368;53.406;6.214;2023-06-26T14:06:51;20.90;99.90
62339;DHT22;48368;53.406;6.214;2023-06-26T14:09:17;21.10;99.90
62339;DHT22;48368;53.406;6.214;2023-06-26T14:11:44;21.20;99.90
62339;DHT22;48368;53.406;6.214;2023-06-26T14:14:10;21.00;99.90
62339;DHT22;48368;53.406;6.214;2023-06-26T14:16:35;21.20;99.90
62339;DHT22;48368;53.406;6.214;2023-06-26T14:19:01;20.90;99.90
62339;DHT22;48368;53.406;6.214;2023-06-26T14:21:27;20.90;99.90
62339;DHT22;48368;53.406;6.214;2023-06-26T14:23:54;21.00;99.90
62339;DHT22;48368;53.406;6.214;2023-06-26T14:26:21;21.10;99.90
62339;DHT22;48368;53.406;6.214;2023-06-26T14:28:46;21.00;99.90
62339;DHT22;48368;53.406;6.214;2023-06-26T14:31:12;21.10;99.90
62339;DHT22;48368;53.406;6.214;2023-06-26T14:33:38;21.10;99.90
62339;DHT22;48368;53.406;6.214;2023-06-26T14:36:04;21.10;99.90
62339;DHT22;48368;53.406;6.214;2023-06-26T14:38:29;21.30;99.90
62339;DHT22;48368;53.406;6.214;2023-06-26T14:40:55;21.10;99.90
62339;DHT22;48368;53.406;6.214;2023-06-26T14:43:21;20.90;99.90
62339;DHT22;48368;53.406;6.214;2023-06-26T14:45:47;20.90;99.90
62339;DHT22;48368;53.406;6.214;2023-06-26T14:48:12;20.90;99.90
62339;DHT22;48368;53.406;6.214;2023-06-26T14:50:38;21.00;99.90
62339;DHT22;48368;53.406;6.214;2023-06-26T14:53:04;21.00;99.90
62339;DHT22;48368;53.406;6.214;2023-06-26T14:55:30;21.00;99.90
62339;DHT22;48368;53.406;6.214;2023-06-26T14:57:55;21.10;99.90
62339;DHT22;48368;53.406;6.214;2023-06-26T15:00:21;21.10;99.90
62339;DHT22;48368;53.406;6.214;2023-06-26T15:02:47;21.10;99.90
62339;DHT22;48368;53.406;6.214;2023-06-26T15:05:13;21.10;99.90
62339;DHT22;48368;53.406;6.214;2023-06-26T15:07:39;21.10;99.90
62339;DHT22;48368;53.406;6.214;2023-06-26T15:10:07;21.10;99.90
62339;DHT22;48368;53.406;6.214;2023-06-26T15:12:32;21.00;99.90
62339;DHT22;48368;53.406;6.214;2023-06-26T15:14:58;21.00;99.90
62339;DHT22;48368;53.406;6.214;2023-06-26T15:17:23;20.80;99.90
62339;DHT22;48368;53.406;6.214;2023-06-26T15:19:49;20.80;99.90
62339;DHT22;48368;53.406;6.214;2023-06-26T15:22:17;20.80;99.90
62339;DHT22;48368;53.406;6.214;2023-06-26T15:24:43;20.60;99.90
62339;DHT22;48368;53.406;6.214;2023-06-26T15:27:09;20.70;99.90
62339;DHT22;48368;53.406;6.214;2023-06-26T15:29:34;20.70;99.90
62339;DHT22;48368;53.406;6.214;2023-06-26T15:32:03;20.80;99.90
62339;DHT22;48368;53.406;6.214;2023-06-26T15:34:29;20.90;99.90
62339;DHT22;48368;53.406;6.214;2023-06-26T15:36:54;20.90;99.90
62339;DHT22;48368;53.406;6.214;2023-06-26T15:39:20;21.10;99.90
62339;DHT22;48368;53.406;6.214;2023-06-26T15:41:45;21.20;99.90